Time;durP1;ratioP1;P1;durP2;ratioP2;P2;SDS_P1;SDS_P2;PMS_P1;PMS_P2;Temp;Humidity;BMP_temperature;BMP_pressure;BME280_temperature;BME280_humidity;BME280_pressure;Samples;Min_cycle;Max_cycle;Signal;HPM_P1;HPM_P2
2022/12/19 00:00:45;;;;;;;44.08;22.45;;;;;;;;;;5031817;28;20284;-84
2022/12/19 00:03:11;;;;;;;36.97;20.17;;;;;;;;;;5032014;28;20522;-83
2022/12/19 00:05:37;;;;;;;43.00;21.07;;;;;;;;;;5030182;28;20688;-83
2022/12/19 00:08:03;;;;;;;44.53;22.92;;;;;;;;;;5046169;28;20284;-83
2022/12/19 00:10:28;;;;;;;50.10;25.60;;;;;;;;;;5025715;28;20488;-84
2022/12/19 00:12:53;;;;;;;42.47;22.77;;;;;;;;;;5024851;28;20419;-83
2022/12/19 00:15:18;;;;;;;42.67;21.53;;;;;;;;;;5035320;28;20045;-83
2022/12/19 00:17:44;;;;;;;36.60;19.23;;;;;;;;;;5029483;28;20288;-84
2022/12/19 00:20:09;;;;;;;38.97;20.97;;;;;;;;;;5029280;28;20755;-83
2022/12/19 00:22:34;;;;;;;38.72;21.77;;;;;;;;;;5031325;28;20034;-84
2022/12/19 00:24:59;;;;;;;41.50;24.77;;;;;;;;;;5029398;28;20948;-84
2022/12/19 00:27:25;;;;;;;36.77;19.70;;;;;;;;;;5028209;28;20128;-83
2022/12/19 00:29:50;;;;;;;41.83;22.93;;;;;;;;;;5028420;28;20981;-83
2022/12/19 00:32:15;;;;;;;35.43;19.47;;;;;;;;;;5023265;28;20072;-84
2022/12/19 00:34:40;;;;;;;35.03;18.07;;;;;;;;;;5030300;28;20300;-84
2022/12/19 00:37:05;;;;;;;34.63;17.90;;;;;;;;;;5030675;28;20057;-84
2022/12/19 00:39:30;;;;;;;36.37;20.00;;;;;;;;;;5029493;28;20662;-84
2022/12/19 00:41:56;;;;;;;40.22;21.23;;;;;;;;;;5044747;28;20284;-83
2022/12/19 00:44:21;;;;;;;39.03;20.13;;;;;;;;;;5057665;28;20407;-84
2022/12/19 00:46:46;;;;;;;33.10;18.20;;;;;;;;;;5028935;28;20116;-83
2022/12/19 00:49:11;;;;;;;38.43;21.40;;;;;;;;;;5046329;28;20037;-84
2022/12/19 00:51:37;;;;;;;40.60;21.47;;;;;;;;;;5029257;28;20044;-83
2022/12/19 00:54:02;;;;;;;37.03;19.27;;;;;;;;;;5029849;28;20289;-84
2022/12/19 00:56:28;;;;;;;39.20;19.48;;;;;;;;;;5055812;28;20070;-84
2022/12/19 00:58:54;;;;;;;30.88;16.60;;;;;;;;;;5055378;28;20058;-84
2022/12/19 01:01:27;;;;;;;48.90;25.00;;;;;;;;;;5069511;28;20029;-84
2022/12/19 01:03:52;;;;;;;54.08;27.50;;;;;;;;;;5039113;28;20117;-84
2022/12/19 01:06:18;;;;;;;49.90;27.73;;;;;;;;;;5035790;28;20445;-84
2022/12/19 01:08:43;;;;;;;50.43;25.80;;;;;;;;;;5043111;28;20569;-84
2022/12/19 01:11:09;;;;;;;48.40;24.77;;;;;;;;;;5049516;28;20293;-83
2022/12/19 01:13:35;;;;;;;42.85;22.38;;;;;;;;;;5033375;28;20049;-84
2022/12/19 01:16:01;;;;;;;35.90;20.05;;;;;;;;;;5041518;28;20604;-84
2022/12/19 01:18:26;;;;;;;40.67;20.77;;;;;;;;;;5033724;28;20084;-84
2022/12/19 01:20:52;;;;;;;50.43;24.57;;;;;;;;;;5034021;28;20116;-84
2022/12/19 01:23:17;;;;;;;50.53;26.33;;;;;;;;;;5036217;28;20045;-84
2022/12/19 01:25:47;;;;;;;48.42;26.35;;;;;;;;;;5043459;28;20041;-84
2022/12/19 01:28:12;;;;;;;47.45;25.50;;;;;;;;;;5035319;28;20125;-84
2022/12/19 01:30:38;;;;;;;44.35;24.83;;;;;;;;;;5035575;28;20060;-84
2022/12/19 01:33:03;;;;;;;43.45;22.10;;;;;;;;;;5066352;28;20068;-84
2022/12/19 01:35:29;;;;;;;50.97;25.83;;;;;;;22.39;100.00;65946.44;5042549;28;20045;-84
2022/12/19 01:37:54;;;;;;;49.50;24.50;;;;;;;;;;5035053;28;20289;-84
2022/12/19 01:40:20;;;;;;;65.80;31.03;;;;;;;;;;5041075;28;20040;-84
2022/12/19 01:42:45;;;;;;;62.03;30.58;;;;;;;;;;5038258;28;20778;-84
2022/12/19 01:45:22;;;;;;;64.57;32.13;;;;;;;;;;5025898;28;20071;-84
2022/12/19 01:47:50;;;;;;;62.25;30.02;;;;;;;;;;5059345;28;20041;-83
2022/12/19 01:50:19;;;;;;;57.72;27.45;;;;;;;;;;5034511;28;20425;-84
2022/12/19 01:52:45;;;;;;;46.38;25.23;;;;;;;;;;5039410;28;20037;-84
2022/12/19 01:55:10;;;;;;;51.53;28.27;;;;;;;;;;5031793;28;20103;-84
2022/12/19 01:57:36;;;;;;;57.08;29.27;;;;;;;;;;5058711;28;20654;-84
2022/12/19 02:00:03;;;;;;;59.38;29.77;;;;;;;;;;5035779;28;20117;-84
2022/12/19 02:02:31;;;;;;;55.08;28.55;;;;;;;;;;5034717;28;20037;-84
2022/12/19 02:04:57;;;;;;;62.08;32.75;;;;;;;;;;5059155;28;20038;-83
2022/12/19 02:07:23;;;;;;;60.38;31.42;;;;;;;;;;5025726;28;20095;-85
2022/12/19 02:09:51;;;;;;;59.90;31.17;;;;;;;;;;5030739;28;20049;-85
2022/12/19 02:12:16;;;;;;;54.90;27.08;;;;;;;;;;5028914;28;20702;-84
2022/12/19 02:14:41;;;;;;;53.23;27.50;;;;;;;;;;5030920;28;20033;-84
2022/12/19 02:17:16;;;;;;;60.08;30.52;;;;;;;;;;5036706;28;20292;-84
2022/12/19 02:19:59;;;;;;;54.55;29.02;;;;;;;;;;5039486;28;20040;-85
2022/12/19 02:22:30;;;;;;;63.58;31.75;;;;;;;;;;5030416;28;20033;-84
2022/12/19 02:25:03;;;;;;;58.65;30.27;;;;;;;;;;5030271;28;20064;-84
2022/12/19 02:27:49;;;;;;;52.20;26.80;;;;;;;;;;5030440;28;20121;-85
2022/12/19 02:30:16;;;;;;;47.85;26.63;;;;;;;;;;5033102;28;20080;-85
2022/12/19 02:32:44;;;;;;;50.00;27.42;;;;;;;;;;5033933;28;20030;-85
2022/12/19 02:35:24;;;;;;;55.28;28.63;;;;;;;;;;5038320;28;20380;-86
2022/12/19 02:37:58;;;;;;;54.03;27.90;;;;;;;;;;5043462;28;20479;-86
2022/12/19 02:40:27;;;;;;;47.05;24.55;;;;;;;;;;5036383;28;20037;-85
2022/12/19 02:43:00;;;;;;;46.53;24.27;;;;;;;;;;5034289;28;20491;-86
2022/12/19 02:45:35;;;;;;;39.90;20.65;;;;;;;;;;5029702;28;20439;-85
2022/12/19 02:48:01;;;;;;;55.92;29.45;;;;;;;;;;5053565;28;20033;-85
2022/12/19 02:50:34;;;;;;;49.78;26.27;;;;;;;;;;5076864;28;20033;-86
2022/12/19 02:52:59;;;;;;;49.20;25.95;;;;;;;;;;5035661;28;20113;-85
2022/12/19 02:55:24;;;;;;;46.37;23.97;;;;;;;;;;5037953;28;20061;-85
2022/12/19 02:58:12;;;;;;;42.47;22.30;;;;;;;;;;5034524;28;20029;-85
2022/12/19 03:00:53;;;;;;;41.42;21.40;;;;;;;;;;5034325;28;20033;-86
2022/12/19 03:03:22;;;;;;;43.28;22.60;;;;;;;;;;5033568;28;20056;-85
2022/12/19 03:06:07;;;;;;;42.22;21.60;;;;;;;;;;5046287;28;20124;-85
2022/12/19 03:08:59;;;;;;;39.55;21.02;;;;;;;;;;5023898;28;20038;-85
2022/12/19 03:11:26;;;;;;;43.42;22.92;;;;;;;;;;5026080;28;20157;-85
2022/12/19 03:14:03;;;;;;;49.15;25.38;;;;;;;;;;5073746;28;20037;-85
2022/12/19 03:16:28;;;;;;;48.70;26.08;;;;;;;;;;5064689;28;20052;-86
2022/12/19 03:18:55;;;;;;;42.53;24.17;;;;;;;;;;5044624;28;20041;-84
2022/12/19 03:21:24;;;;;;;41.92;22.83;;;;;;;;;;5048078;28;20037;-84
2022/12/19 03:23:51;;;;;;;46.28;24.15;;;;;;;;;;5053215;28;20230;-84
2022/12/19 03:26:18;;;;;;;44.45;23.65;;;;;;;;;;5082159;28;20037;-84
2022/12/19 03:28:50;;;;;;;45.13;23.58;;;;;;;;;;5054540;28;20033;-85
2022/12/19 03:31:17;;;;;;;44.85;23.92;;;;;;;;;;5054869;28;20029;-85
2022/12/19 03:33:44;;;;;;;42.45;21.65;;;;;;;;;;5053776;28;20041;-85
2022/12/19 03:36:11;;;;;;;38.85;21.13;;;;;;;;;;5063790;28;20041;-86
2022/12/19 03:38:38;;;;;;;34.65;18.73;;;;;;;;;;5070000;28;20033;-86
2022/12/19 03:41:05;;;;;;;30.63;16.40;;;;;;;;;;5060044;28;20028;-85
2022/12/19 03:43:31;;;;;;;;;;;;;;;;;;5071710;28;20041;-85
2022/12/19 03:45:56;;;;;;;;;;;;;;;;;;5063192;28;19932;-85
2022/12/19 03:48:33;;;;;;;50.75;25.42;;;;;;;;;;5056888;28;19916;-85
2022/12/19 03:51:21;;;;;;;43.83;23.33;;;;;;;;;;5059476;28;20144;-85
2022/12/19 03:53:48;;;;;;;41.28;25.10;;;;;;;;;;5055871;28;20404;-85
2022/12/19 03:56:14;;;;;;;34.90;20.08;;;;;;;;;;5060502;28;20055;-85
2022/12/19 03:58:41;;;;;;;38.10;20.27;;;;;;;;;;5068921;28;20017;-85
2022/12/19 04:01:06;;;;;;;33.88;17.02;;;;;;;;;;5055827;28;20279;-85
2022/12/19 04:03:32;;;;;;;30.13;17.42;;;;;;;;;;5047337;28;20117;-85
2022/12/19 04:05:58;;;;;;;45.53;24.63;;;;;;;;;;5047787;28;20037;-85
2022/12/19 04:08:24;;;;;;;45.28;25.05;;;;;;;;;;5035993;28;20124;-85
2022/12/19 04:10:51;;;;;;;39.85;22.33;;;;;;;;;;5044620;28;20033;-85
2022/12/19 04:13:17;;;;;;;45.80;23.75;;;;;;;;;;5070471;28;20059;-84
2022/12/19 04:16:02;;;;;;;50.72;25.85;;;;;;;;;;5047002;28;20033;-85
2022/12/19 04:18:28;;;;;;;46.25;24.50;;;;;;;;;;5052687;28;20529;-85
2022/12/19 04:21:13;;;;;;;45.95;24.50;;;;;;;;;;5035665;28;20067;-86
2022/12/19 04:23:46;;;;;;;54.05;27.95;;;;;;;22.40;100.00;159921.53;5034230;28;20034;-86
2022/12/19 04:26:12;;;;;;;46.33;24.75;;;;;;;;;;5036881;28;20026;-85
2022/12/19 04:28:42;;;;;;;38.83;20.55;;;;;;;;;;5032520;28;20044;-85
2022/12/19 04:31:09;;;;;;;43.17;22.02;;;;;;;;;;5049987;28;20573;-85
2022/12/19 04:33:34;;;;;;;44.92;24.02;;;;;;;;;;5051767;28;20041;-85
2022/12/19 04:35:59;;;;;;;37.40;21.07;;;;;;;;;;5041098;28;20513;-85
2022/12/19 04:38:25;;;;;;;31.93;17.60;;;;;;;;;;5034334;28;20061;-85
2022/12/19 04:40:50;;;;;;;32.03;20.17;;;;;;;;;;5035984;28;20421;-85
2022/12/19 04:43:16;;;;;;;31.87;20.03;;;;;;;;;;5036892;28;20787;-86
2022/12/19 04:45:41;;;;;;;30.08;16.88;;;;;;;;;;5055076;28;20545;-85
2022/12/19 04:48:06;;;;;;;31.88;18.73;;;;;;;;;;5021952;28;20099;-86
2022/12/19 04:50:32;;;;;;;34.77;18.80;;;;;;;;;;5037843;28;20030;-85
2022/12/19 04:52:57;;;;;;;39.65;20.63;;;;;;;;;;5049169;28;20304;-85
2022/12/19 04:55:22;;;;;;;33.87;18.53;;;;;;;;;;5045684;28;20693;-85
2022/12/19 04:57:47;;;;;;;31.92;17.25;;;;;;;;;;5058700;28;20035;-86
2022/12/19 05:00:13;;;;;;;29.33;16.07;;;;;;;;;;5030459;28;20052;-85
2022/12/19 05:02:38;;;;;;;29.58;15.85;;;;;;;;;;5021895;28;20487;-85
2022/12/19 05:05:03;;;;;;;32.28;16.67;;;;;;;;;;5027811;28;20037;-86
2022/12/19 05:07:29;;;;;;;28.58;14.85;;;;;;;;;;5048404;28;20049;-86
2022/12/19 05:09:54;;;;;;;;;;;;;;;;;;5030490;28;20380;-85
2022/12/19 05:12:19;;;;;;;29.67;15.65;;;;;;;;;;5030216;28;19917;-86
2022/12/19 05:14:44;;;;;;;30.67;16.73;;;;;;;;;;5020514;28;20037;-85
2022/12/19 05:17:09;;;;;;;33.37;16.67;;;;;;;;;;5028052;28;20049;-85
2022/12/19 05:19:35;;;;;;;28.57;15.97;;;;;;;;;;5027995;28;20033;-85
2022/12/19 05:22:00;;;;;;;36.92;19.55;;;;;;;;;;5029827;28;20276;-85
2022/12/19 05:24:25;;;;;;;39.20;20.17;;;;;;;;;;5027609;28;20041;-85
2022/12/19 05:26:50;;;;;;;35.37;19.20;;;;;;;;;;5029539;28;20076;-86
2022/12/19 05:29:16;;;;;;;33.63;16.83;;;;;;;;;;5033659;28;20072;-85
2022/12/19 05:31:41;;;;;;;30.70;16.58;;;;;;;;;;5056783;28;20095;-85
2022/12/19 05:34:06;;;;;;;;;;;;;;;;;;5058634;28;20037;-85
2022/12/19 05:36:31;;;;;;;31.55;16.50;;;;;;;;;;5035146;28;19924;-85
2022/12/19 05:38:56;;;;;;;34.87;17.20;;;;;;;;;;5034354;28;20033;-85
2022/12/19 05:41:21;;;;;;;33.60;16.97;;;;;;;;;;5052480;28;20291;-84
2022/12/19 05:43:54;;;;;;;31.03;16.10;;;;;;;;;;5031626;28;20284;-85
2022/12/19 05:46:19;;;;;;;27.63;14.73;;;;;;;;;;5033048;28;20061;-85
2022/12/19 05:48:44;;;;;;;35.13;21.30;;;;;;;;;;5041262;28;20760;-85
2022/12/19 05:51:10;;;;;;;36.92;19.00;;;;;;;;;;5034161;28;20038;-85
2022/12/19 05:53:36;;;;;;;36.07;22.03;;;;;;;;;;5027830;28;20769;-84
2022/12/19 05:56:04;;;;;;;30.35;19.10;;;;;;;;;;5033047;28;20421;-84
2022/12/19 05:58:30;;;;;;;38.15;19.52;;;;;;;;;;5030794;28;20509;-84
2022/12/19 06:00:59;;;;;;;36.72;20.45;;;;;;;;;;5063568;28;20033;-85
2022/12/19 06:03:24;;;;;;;38.20;19.63;;;;;;;;;;5030099;28;20487;-85
2022/12/19 06:05:50;;;;;;;36.10;18.87;;;;;;;;;;5038344;28;20148;-84
2022/12/19 06:08:15;;;;;;;34.27;17.67;;;;;;;;;;5064083;28;20037;-84
2022/12/19 06:10:40;;;;;;;30.67;16.10;;;;;;;;;;5051913;28;20041;-84
2022/12/19 06:13:05;;;;;;;28.90;16.20;;;;;;;;;;5020886;28;20301;-85
2022/12/19 06:15:31;;;;;;;31.00;16.43;;;;;;;;;;5036106;28;20450;-85
2022/12/19 06:17:56;;;;;;;36.17;17.90;;;;;;;;;;5024984;28;20056;-85
2022/12/19 06:20:21;;;;;;;37.53;19.65;;;;;;;;;;5057846;28;20096;-85
2022/12/19 06:22:46;;;;;;;38.03;17.97;;;;;;;;;;5032747;28;20037;-85
2022/12/19 06:25:14;;;;;;;33.43;17.80;;;;;;;;;;5040099;28;20319;-85
2022/12/19 06:27:40;;;;;;;30.25;16.05;;;;;;;;;;5047285;28;20048;-85
2022/12/19 06:30:05;;;;;;;35.27;18.70;;;;;;;;;;5032003;28;20049;-86
2022/12/19 06:32:32;;;;;;;31.73;17.40;;;;;;;;;;5063035;28;20449;-85
2022/12/19 06:34:57;;;;;;;31.73;16.70;;;;;;;;;;5035558;28;20037;-86
2022/12/19 06:37:22;;;;;;;36.80;18.05;;;;;;;;;;5062493;28;20056;-85
2022/12/19 06:39:49;;;;;;;29.37;15.30;;;;;;;;;;5031847;28;20042;-85
2022/12/19 06:42:23;;;;;;;32.63;16.25;;;;;;;;;;5055737;28;20057;-85
2022/12/19 06:44:49;;;;;;;36.40;18.38;;;;;;;;;;5035649;28;20041;-85
2022/12/19 06:47:14;;;;;;;39.63;18.77;;;;;;;22.40;100.00;159763.88;5022138;28;20045;-85
2022/12/19 06:49:54;;;;;;;36.65;18.33;;;;;;;;;;5030853;28;20065;-85
2022/12/19 06:52:20;;;;;;;32.03;16.70;;;;;;;;;;5028425;28;20487;-85
2022/12/19 06:54:45;;;;;;;29.43;15.17;;;;;;;;;;5039281;28;20041;-85
2022/12/19 06:57:10;;;;;;;26.90;15.07;;;;;;;;;;5029408;28;20041;-85
2022/12/19 06:59:35;;;;;;;34.20;17.67;;;;;;;;;;5034227;28;20280;-85
2022/12/19 07:02:11;;;;;;;28.60;15.17;;;;;;;;;;5032869;28;20288;-85
2022/12/19 07:04:47;;;;;;;32.00;16.45;;;;;;;;;;5057042;28;20453;-85
2022/12/19 07:07:12;;;;;;;36.78;19.48;;;;;;;;;;5088704;28;20120;-85
2022/12/19 07:09:47;;;;;;;39.00;20.43;;;;;;;;;;5082818;28;20120;-85
2022/12/19 07:12:14;;;;;;;46.22;22.88;;;;;;;;;;5047588;28;20291;-85
2022/12/19 07:14:39;;;;;;;42.77;22.30;;;;;;;;;;5055297;28;20033;-85
2022/12/19 07:17:05;;;;;;;45.33;22.40;;;;;;;;;;5052930;28;20241;-86
2022/12/19 07:19:31;;;;;;;40.47;20.77;;;;;;;;;;5071334;28;20280;-86
2022/12/19 07:21:58;;;;;;;41.97;21.58;;;;;;;;;;5051058;28;20029;-87
2022/12/19 07:24:25;;;;;;;40.08;20.92;;;;;;;;;;5076534;28;20036;-87
2022/12/19 07:26:51;;;;;;;39.63;19.60;;;;;;;;;;5048221;28;20037;-86
2022/12/19 07:29:21;;;;;;;32.30;16.65;;;;;;;;;;5056296;28;20045;-86
2022/12/19 07:31:47;;;;;;;29.55;15.70;;;;;;;;;;5070756;28;20115;-87
2022/12/19 07:34:12;;;;;;;27.95;14.00;;;;;;;;;;5049889;28;20067;-87
2022/12/19 07:36:37;;;;;;;30.60;14.98;;;;;;;;;;5054268;28;20067;-87
2022/12/19 07:39:06;;;;;;;30.60;15.90;;;;;;;;;;5049042;28;20040;-87
2022/12/19 07:41:31;;;;;;;26.70;13.98;;;;;;;;;;5049061;28;20587;-86
2022/12/19 07:44:36;;;;;;;;;;;;;;;;;;;;;
2022/12/19 07:47:41;;;;;;;27.02;14.18;;;;;;;;;;5031319;23;20037;-87
2022/12/19 08:35:06;;;;;;;27.00;14.23;;;;;;;;;;5013227;28;20057;-88
2022/12/19 08:37:31;;;;;;;26.20;14.05;;;;;;;;;;5014712;28;20041;-89
2022/12/19 08:39:57;;;;;;;23.27;12.90;;;;;;;;;;5013084;28;20069;-89
2022/12/19 08:42:22;;;;;;;35.23;18.90;;;;;;;;;;5012479;28;20281;-89
2022/12/19 08:44:47;;;;;;;38.67;20.17;;;;;;;;;;5010607;28;20041;-88
2022/12/19 08:47:13;;;;;;;36.50;19.20;;;;;;;;;;5016134;28;20105;-88
2022/12/19 08:49:39;;;;;;;35.72;19.00;;;;;;;;;;5017157;28;20288;-88
2022/12/19 08:52:04;;;;;;;41.30;21.92;;;;;;;;;;4999132;28;20037;-89
2022/12/19 08:54:29;;;;;;;36.70;20.07;;;;;;;;;;5014381;28;20060;-89
2022/12/19 08:56:54;;;;;;;36.53;19.63;;;;;;;;;;5006844;28;20408;-89
2022/12/19 08:59:20;;;;;;;35.57;19.00;;;;;;;;;;5029326;28;20354;-89
2022/12/19 09:01:45;;;;;;;35.72;18.85;;;;;;;;;;5016231;28;20063;-90
2022/12/19 09:04:10;;;;;;;34.70;19.52;;;;;;;;;;5015083;28;20050;-89
2022/12/19 09:06:35;;;;;;;34.40;18.13;;;;;;;;;;5018671;28;20049;-89
2022/12/19 09:09:02;;;;;;;33.97;19.57;;;;;;;;;;5015760;28;20034;-90
2022/12/19 09:11:27;;;;;;;34.95;18.80;;;;;;;;;;5008964;28;20532;-90
2022/12/19 09:13:54;;;;;;;36.30;19.17;;;;;;;;;;5015012;28;20030;-89
2022/12/19 09:16:20;;;;;;;31.55;18.38;;;;;;;;;;5016154;28;20052;-89
2022/12/19 09:18:48;;;;;;;29.17;15.43;;;;;;;;;;5018613;28;20042;-89
2022/12/19 09:21:14;;;;;;;26.92;13.88;;;;;;;;;;5018406;28;20084;-89
2022/12/19 09:23:40;;;;;;;24.80;13.57;;;;;;;;;;5018788;28;20506;-89
2022/12/19 09:26:07;;;;;;;27.67;14.57;;;;;;;;;;5015959;28;20057;-88
2022/12/19 09:28:33;;;;;;;26.52;15.02;;;;;;;;;;5020393;28;20045;-89
2022/12/19 09:31:00;;;;;;;24.20;13.57;;;;;;;;;;5022400;28;20038;-89
2022/12/19 09:33:25;;;;;;;27.90;15.48;;;;;;;;;;5024013;28;20042;-89
2022/12/19 09:35:51;;;;;;;29.25;15.55;;;;;;;;;;5016699;28;20041;-90
2022/12/19 09:38:17;;;;;;;29.33;15.82;;;;;;;;;;5013228;28;20138;-89
2022/12/19 09:40:58;;;;;;;28.95;16.48;;;;;;;;;;5012934;28;20168;-90
2022/12/19 09:43:29;;;;;;;40.45;20.90;;;;;;;;;;5015757;28;20045;-89
2022/12/19 09:46:01;;;;;;;36.65;18.80;;;;;;;;;;5016623;28;20050;-89
2022/12/19 09:48:27;;;;;;;33.30;18.17;;;;;;;;;;5016437;28;20398;-89
2022/12/19 09:50:58;;;;;;;30.63;17.43;;;;;;;;;;5014111;28;20042;-88
2022/12/19 09:53:37;;;;;;;34.28;18.38;;;;;;;;;;5016658;28;20037;-90
2022/12/19 09:56:04;;;;;;;32.83;18.05;;;;;;;;;;5017425;28;20038;-88
2022/12/19 09:58:36;;;;;;;33.85;17.02;;;;;;;;;;5018574;28;20080;-89
2022/12/19 10:01:03;;;;;;;31.45;16.77;;;;;;;;;;5018047;28;20065;-88
2022/12/19 10:03:31;;;;;;;33.75;18.75;;;;;;;;;;5022451;28;20049;-88
2022/12/19 10:06:19;;;;;;;37.72;19.42;;;;;;;;;;5016367;28;20038;-89
2022/12/19 10:08:45;;;;;;;37.08;20.48;;;;;;;;;;5009768;28;20042;-90
2022/12/19 10:11:13;;;;;;;34.95;18.65;;;;;;;;;;5022267;28;20046;-90
2022/12/19 10:13:38;;;;;;;37.80;19.58;;;;;;;;;;5019825;28;20025;-87
2022/12/19 10:16:03;;;;;;;32.90;18.47;;;;;;;;;;5022376;28;20129;-88
2022/12/19 10:18:41;;;;;;;32.87;18.60;;;;;;;;;;5021454;28;20048;-89
2022/12/19 10:21:09;;;;;;;32.50;19.60;;;;;;;;;;5019552;28;20344;-88
2022/12/19 10:23:50;;;;;;;37.53;20.20;;;;;;;;;;5019457;28;20038;-89
2022/12/19 10:26:20;;;;;;;36.80;20.27;;;;;;;;;;5003305;28;20034;-89
2022/12/19 10:29:08;;;;;;;36.78;19.77;;;;;;;;;;5018852;28;20042;-89
2022/12/19 10:31:33;;;;;;;29.23;19.02;;;;;;;;;;5014831;28;20427;-88
2022/12/19 10:34:18;;;;;;;34.43;19.20;;;;;;;;;;5020591;28;20102;-89
2022/12/19 10:36:45;;;;;;;33.00;19.13;;;;;;;;;;5014149;28;20041;-88
2022/12/19 10:39:30;;;;;;;32.47;16.75;;;;;;;;;;5011991;28;20077;-89
2022/12/19 10:41:59;;;;;;;27.52;15.60;;;;;;;;;;5016217;28;20460;-89
2022/12/19 10:44:27;;;;;;;24.88;14.10;;;;;;;;;;5016423;28;20044;-90
2022/12/19 10:46:52;;;;;;;26.48;15.13;;;;;;;;;;5012390;28;20030;-89
2022/12/19 10:49:17;;;;;;;24.03;14.23;;;;;;;;;;5011640;28;20099;-90
2022/12/19 10:51:55;;;;;;;24.08;13.55;;;;;;;;;;5014576;28;20425;-89
2022/12/19 10:54:23;;;;;;;26.55;14.85;;;;;;;;;;5007797;28;20034;-90
2022/12/19 10:56:48;;;;;;;24.23;14.40;;;;;;;;;;5013949;28;20041;-90
2022/12/19 10:59:15;;;;;;;38.33;19.23;;;;;;;;;;5026395;28;20033;-85
2022/12/19 11:01:40;;;;;;;33.58;18.88;;;;;;;;;;5018031;28;20073;-88
2022/12/19 11:04:25;;;;;;;34.15;18.77;;;;;;;;;;5018692;28;20073;-89
2022/12/19 11:07:04;;;;;;;29.65;16.40;;;;;;;;;;5014846;28;20037;-88
2022/12/19 11:09:42;;;;;;;29.25;14.93;;;;;;;;;;5004856;28;20076;-89
2022/12/19 11:12:07;;;;;;;25.58;14.35;;;;;;;;;;5007269;28;20033;-88
2022/12/19 11:14:34;;;;;;;23.40;13.30;;;;;;;;;;5017360;28;20397;-88
2022/12/19 11:16:59;;;;;;;23.30;14.23;;;;;;;;;;5025892;28;20069;-89
2022/12/19 11:19:26;;;;;;;24.52;13.88;;;;;;;;;;5014815;28;20042;-89
2022/12/19 11:21:52;;;;;;;23.25;13.60;;;;;;;;;;5020778;28;20040;-89
2022/12/19 11:24:23;;;;;;;20.90;11.73;;;;;;;;;;5026539;28;20038;-89
2022/12/19 11:26:49;;;;;;;19.65;11.45;;;;;;;;;;5018401;28;20664;-85
2022/12/19 11:29:15;;;;;;;26.30;14.38;;;;;;;;;;5022742;28;20037;-91
2022/12/19 11:31:40;;;;;;;26.40;14.60;;;;;;;;;;5015358;28;20042;-87
2022/12/19 11:34:12;;;;;;;31.65;16.48;;;;;;;;;;5011953;28;20108;-89
2022/12/19 11:36:40;;;;;;;35.72;19.63;;;;;;;;;;5011050;28;20038;-87
2022/12/19 11:39:11;;;;;;;36.10;19.65;;;;;;;;;;5014588;28;20445;-87
2022/12/19 11:41:50;;;;;;;39.92;20.20;;;;;;;;;;5021158;28;20065;-87
2022/12/19 11:44:18;;;;;;;35.22;19.45;;;;;;;;;;5000491;28;20042;-87
2022/12/19 11:49:35;;;;;;;34.50;19.70;;;;;;;;;;4985648;28;20451;-85
2022/12/19 11:52:25;;;;;;;29.63;16.23;;;;;;;;;;4990179;28;20038;-85
2022/12/19 11:54:56;;;;;;;29.20;17.85;;;;;;;;;;4984377;28;20089;-86
2022/12/19 11:57:22;;;;;;;32.50;17.98;;;;;;;;;;4986911;28;20604;-85
2022/12/19 11:59:47;;;;;;;31.40;17.50;;;;;;;;;;4992113;28;20284;-86
2022/12/19 12:02:18;;;;;;;28.53;16.07;;;;;;;;;;4990595;28;20061;-85
2022/12/19 12:04:58;;;;;;;25.70;14.70;;;;;;;4.10;nan;101219.28;4980679;28;20034;-85
2022/12/19 12:07:31;;;;;;;27.73;16.52;;;;;;;4.22;nan;101221.16;4997266;28;20066;-85
2022/12/19 12:10:15;;;;;;;29.02;16.98;;;;;;;4.33;nan;101223.94;4989453;28;20113;-85
2022/12/19 12:13:09;;;;;;;24.17;14.15;;;;;;;4.46;nan;101221.44;4988884;28;20050;-85
2022/12/19 12:15:56;;;;;;;30.25;16.50;;;;;;;4.48;nan;101211.69;4987505;28;20038;-86
2022/12/19 12:18:45;;;;;;;25.58;15.32;;;;;;;4.42;nan;101207.66;4989423;28;20116;-85
2022/12/19 12:21:23;;;;;;;28.75;15.80;;;;;;;4.41;nan;101199.91;4990824;28;20053;-85
2022/12/19 12:24:01;;;;;;;30.40;17.35;;;;;;;4.46;nan;101198.69;4991616;28;20609;-85
2022/12/19 12:26:34;;;;;;;32.97;17.88;;;;;;;4.51;nan;101192.34;4988195;28;20034;-85
2022/12/19 12:29:11;;;;;;;28.80;16.13;;;;;;;4.55;nan;101193.81;4983135;28;20066;-86
2022/12/19 12:31:54;;;;;;;27.08;15.95;;;;;;;4.55;nan;101188.56;4986154;28;20031;-85
2022/12/19 12:34:46;;;;;;;27.92;17.33;;;;;;;4.55;nan;101180.72;4986122;28;20061;-85
2022/12/19 12:37:26;;;;;;;;;;;;;;;4.59;nan;101183.03;4988009;28;20046;-86
2022/12/19 12:40:11;;;;;;;28.10;15.63;;;;;;;4.65;nan;101181.84;5004967;28;19918;-85
2022/12/19 12:42:55;;;;;;;28.90;16.77;;;;;;;4.67;nan;101185.16;4982487;28;20348;-85
2022/12/19 12:45:36;;;;;;;30.67;17.80;;;;;;;4.71;nan;101186.66;4988346;28;20050;-85
2022/12/19 12:48:06;;;;;;;26.50;16.08;;;;;;;4.77;nan;101186.28;4981042;28;20038;-85
2022/12/19 12:50:33;;;;;;;25.15;16.17;;;;;;;4.82;nan;101189.44;4987780;28;20042;-85
2022/12/19 12:53:05;;;;;;;23.05;15.48;;;;;;;4.94;nan;101195.69;4985890;28;20054;-83
2022/12/19 12:55:42;;;;;;;28.65;18.33;;;;;;;4.91;nan;101201.13;4986598;28;20497;-83
2022/12/19 12:58:44;;;;;;;26.42;17.73;;;;;;;4.79;nan;101197.50;4981807;28;20050;-82
2022/12/19 13:01:27;;;;;;;28.02;16.98;;;;;;;4.73;nan;101191.81;4986094;28;20097;-82
2022/12/19 13:04:00;;;;;;;30.80;17.33;;;;;;;4.77;nan;101190.69;5005910;28;20504;-82
2022/12/19 13:06:51;;;;;;;27.60;17.27;;;;;;;4.70;nan;101177.13;4992551;28;20042;-84
2022/12/19 13:09:16;;;;;;;;;;;;;;;4.74;nan;101189.09;4990240;28;20630;-82
2022/12/19 13:14:35;;;;;;;29.35;15.88;;;;;;;;;;4989989;28;20100;-82
2022/12/19 13:17:02;;;;;;;32.90;18.58;;;;;;;;;;4984983;28;20428;-83
2022/12/19 13:19:29;;;;;;;31.52;19.55;;;;;;;;;;4988071;28;20142;-83
2022/12/19 13:22:03;;;;;;;32.78;19.25;;;;;;;;;;4984464;28;20126;-82
2022/12/19 13:24:38;;;;;;;31.45;18.65;;;;;;;;;;4985003;28;20087;-83
2022/12/19 13:27:24;;;;;;;31.30;17.80;;;;;;;;;;4986229;28;20104;-82
2022/12/19 13:29:55;;;;;;;33.42;18.45;;;;;;;;;;4986970;28;20049;-83
2022/12/19 13:32:21;;;;;;;34.97;19.88;;;;;;;;;;4989349;28;20038;-82
2022/12/19 13:34:51;;;;;;;29.95;17.50;;;;;;;;;;4999490;28;20578;-83
2022/12/19 13:37:25;;;;;;;32.38;18.75;;;;;;;;;;4995666;28;20034;-83
2022/12/19 13:39:50;;;;;;;27.83;16.83;;;;;;;;;;4984558;28;20490;-83
2022/12/19 13:45:28;;;;;;;28.95;17.17;;;;;;;;;;4992323;28;20050;-83
2022/12/19 13:47:55;;;;;;;25.50;14.93;;;;;;;;;;4985537;28;20098;-83
2022/12/19 13:50:29;;;;;;;28.50;16.33;;;;;;;;;;4988835;28;20030;-83
2022/12/19 13:52:54;;;;;;;34.38;19.23;;;;;;;;;;4988983;28;20084;-84
2022/12/19 13:55:19;;;;;;;36.42;19.63;;;;;;;;;;4990860;28;20034;-82
2022/12/19 13:57:51;;;;;;;33.77;19.37;;;;;;;;;;4990683;28;20042;-83
2022/12/19 14:00:17;;;;;;;32.63;18.60;;;;;;;;;;4988189;28;20314;-83
2022/12/19 14:02:48;;;;;;;28.70;17.15;;;;;;;;;;4990944;28;20046;-84
2022/12/19 14:05:20;;;;;;;28.65;16.70;;;;;;;;;;4989547;28;20038;-83
2022/12/19 14:07:45;;;;;;;30.80;17.27;;;;;;;;;;4993068;28;20076;-84
2022/12/19 14:10:16;;;;;;;28.08;16.60;;;;;;;;;;4991389;28;20732;-83
2022/12/19 14:15:31;;;;;;;31.02;16.88;;;;;;;;;;5002598;28;20213;-84
2022/12/19 14:17:56;;;;;;;;;;;;;;;;;;4988391;28;20035;-83
2022/12/19 14:20:23;;;;;;;31.58;17.05;;;;;;;;;;4992574;28;19917;-83
2022/12/19 14:22:49;;;;;;;28.38;16.45;;;;;;;;;;4986418;28;20062;-83
2022/12/19 14:25:14;;;;;;;29.63;16.37;;;;;;;;;;4989590;28;20062;-84
2022/12/19 14:27:42;;;;;;;28.38;17.42;;;;;;;;;;5000238;28;20305;-84
2022/12/19 14:30:15;;;;;;;27.67;16.13;;;;;;;;;;4989787;28;20034;-83
2022/12/19 14:32:41;;;;;;;27.48;15.75;;;;;;;;;;4996433;28;20667;-83
2022/12/19 14:35:08;;;;;;;28.95;17.05;;;;;;;;;;4988402;28;20073;-83
2022/12/19 14:37:37;;;;;;;27.35;16.58;;;;;;;;;;4993191;28;20073;-84
2022/12/19 14:40:13;;;;;;;27.42;15.70;;;;;;;;;;4992138;28;20435;-83
2022/12/19 14:45:31;;;;;;;27.08;16.63;;;;;;;;;;4990027;28;20076;-83
2022/12/19 14:47:57;;;;;;;28.80;16.52;;;;;;;;;;4993361;28;20088;-83
2022/12/19 14:50:25;;;;;;;33.55;18.85;;;;;;;;;;4987978;28;20042;-83
2022/12/19 14:53:04;;;;;;;30.98;17.80;;;;;;;;;;4993858;28;20038;-84
2022/12/19 14:55:31;;;;;;;33.72;18.63;;;;;;;;;;4994422;28;20039;-83
2022/12/19 14:57:56;;;;;;;26.92;15.85;;;;;;;;;;4988606;28;20073;-86
2022/12/19 15:00:28;;;;;;;27.70;15.82;;;;;;;;;;4990171;28;20050;-86
2022/12/19 15:02:55;;;;;;;27.08;15.75;;;;;;;;;;4987015;28;20038;-85
2022/12/19 15:05:20;;;;;;;24.23;14.38;;;;;;;;;;4984880;28;20039;-85
2022/12/19 15:07:48;;;;;;;26.77;14.73;;;;;;;;;;4987794;28;20121;-85
2022/12/19 15:10:13;;;;;;;23.40;13.65;;;;;;;;;;4986753;28;20440;-85
2022/12/19 15:15:47;;;;;;;21.33;12.20;;;;;;;;;;4991347;28;20045;-85
2022/12/19 15:18:32;;;;;;;25.27;14.15;;;;;;;;;;4989661;28;20038;-86